createdAt,value
2018-02-09T00:01:48.379Z,84.70
2018-02-09T00:04:17.144Z,85.20
2018-02-09T00:06:46.325Z,85.00
2018-02-09T00:09:15.030Z,84.80
2018-02-09T00:11:43.875Z,84.80
2018-02-09T00:14:12.478Z,85.30
2018-02-09T00:16:41.170Z,85.40
2018-02-09T00:19:09.931Z,85.70
2018-02-09T00:21:38.991Z,85.80
2018-02-09T00:24:08.628Z,85.90
2018-02-09T00:26:37.972Z,85.90
2018-02-09T00:29:11.464Z,86.60
2018-02-09T00:31:40.039Z,86.70
2018-02-09T00:34:08.760Z,86.20
2018-02-09T00:36:38.420Z,86.10
2018-02-09T00:39:07.468Z,86.10
2018-02-09T00:41:37.010Z,86.70
2018-02-09T00:44:06.311Z,87.00
2018-02-09T00:46:34.877Z,86.90
2018-02-09T00:49:03.525Z,87.00
2018-02-09T00:51:32.916Z,88.00
2018-02-09T00:54:01.524Z,87.50
2018-02-09T00:56:30.853Z,88.00
2018-02-09T00:58:59.488Z,87.20
2018-02-09T01:01:28.088Z,87.20
2018-02-09T01:03:57.478Z,87.70
2018-02-09T01:06:27.810Z,86.60
2018-02-09T01:08:56.382Z,86.20
2018-02-09T01:11:25.039Z,86.70
2018-02-09T01:13:53.659Z,86.30
2018-02-09T01:16:22.239Z,86.50
2018-02-09T01:18:50.796Z,86.10
2018-02-09T01:21:19.401Z,86.10
2018-02-09T01:23:49.394Z,85.80
2018-02-09T01:26:18.760Z,86.40
2018-02-09T01:28:48.142Z,86.60
2018-02-09T01:31:16.725Z,86.00
2018-02-09T01:33:46.085Z,85.70
2018-02-09T01:36:14.707Z,85.30
2018-02-09T01:38:44.057Z,84.90
2018-02-09T01:41:13.079Z,84.90
2018-02-09T01:43:42.482Z,85.20
2018-02-09T01:46:11.847Z,84.80
2018-02-09T01:48:41.265Z,84.80
2018-02-09T01:51:10.155Z,85.70
2018-02-09T01:53:40.278Z,86.60
2018-02-09T01:56:08.918Z,86.10
2018-02-09T01:58:38.316Z,86.70
2018-02-09T02:01:06.921Z,86.30
2018-02-09T02:03:36.647Z,87.00
2018-02-09T02:06:05.696Z,86.30
2018-02-09T02:08:34.313Z,86.10
2018-02-09T02:11:02.997Z,85.60
2018-02-09T02:13:34.672Z,86.90
2018-02-09T02:16:03.264Z,86.20
2018-02-09T02:18:31.892Z,85.70
2018-02-09T02:21:00.873Z,86.10
2018-02-09T02:23:29.471Z,86.10
2018-02-09T02:25:58.062Z,85.50
2018-02-09T02:28:26.682Z,85.00
2018-02-09T02:30:55.354Z,85.40
2018-02-09T02:33:24.073Z,84.90
2018-02-09T02:35:52.755Z,85.40
2018-02-09T02:38:21.387Z,84.90
2018-02-09T02:40:49.965Z,85.10
2018-02-09T02:43:18.639Z,85.70
2018-02-09T02:45:47.234Z,85.60
2018-02-09T02:48:15.787Z,86.00
2018-02-09T02:50:44.471Z,86.00
2018-02-09T02:53:13.083Z,85.40
2018-02-09T02:55:41.711Z,84.80
2018-02-09T02:58:10.402Z,85.30
2018-02-09T03:00:39.926Z,85.10
2018-02-09T03:03:08.620Z,85.30
2018-02-09T03:05:38.102Z,84.40
2018-02-09T03:08:07.608Z,84.10
2018-02-09T03:10:36.318Z,83.60
2018-02-09T03:13:05.370Z,84.80
2018-02-09T03:15:34.021Z,84.60
2018-02-09T03:18:02.676Z,84.20
2018-02-09T03:20:31.393Z,83.70
2018-02-09T03:23:00.455Z,84.40
2018-02-09T03:25:29.078Z,84.90
2018-02-09T03:27:58.703Z,84.30
2018-02-09T03:30:27.375Z,85.10
2018-02-09T03:32:55.994Z,85.50
2018-02-09T03:35:24.900Z,85.00
2018-02-09T03:37:53.554Z,85.30
2018-02-09T03:40:22.181Z,85.50
2018-02-09T03:42:50.792Z,85.30
2018-02-09T03:45:19.365Z,85.80
2018-02-09T03:47:47.997Z,85.50
2018-02-09T03:50:16.677Z,86.40
2018-02-09T03:52:45.254Z,85.10
2018-02-09T03:55:14.708Z,86.20
2018-02-09T03:57:44.422Z,86.20
2018-02-09T04:00:13.267Z,86.30
2018-02-09T04:02:42.401Z,85.30
2018-02-09T04:05:12.114Z,85.20
2018-02-09T04:07:41.002Z,84.20
2018-02-09T04:10:10.098Z,81.40
2018-02-09T04:12:39.000Z,80.30
2018-02-09T04:15:07.593Z,80.20
2018-02-09T04:17:36.212Z,80.80
2018-02-09T04:20:04.844Z,81.20
2018-02-09T04:22:33.542Z,80.60
2018-02-09T04:25:02.178Z,77.90
2018-02-09T04:27:31.490Z,77.70
2018-02-09T04:30:00.046Z,76.30
2018-02-09T04:32:29.094Z,76.30
2018-02-09T04:34:57.779Z,74.60
2018-02-09T04:37:26.410Z,75.10
2018-02-09T04:39:54.973Z,71.90
2018-02-09T04:42:24.438Z,72.70
2018-02-09T04:44:53.391Z,70.30
2018-02-09T04:47:21.985Z,70.80
2018-02-09T04:49:51.033Z,68.30
2018-02-09T04:52:19.613Z,69.90
2018-02-09T04:54:48.238Z,67.60
2018-02-09T04:57:17.596Z,67.40
2018-02-09T04:59:46.158Z,69.50
2018-02-09T05:02:14.710Z,68.70
2018-02-09T05:04:43.338Z,68.70
2018-02-09T05:07:11.957Z,69.90
2018-02-09T05:09:40.533Z,69.90
2018-02-09T05:12:09.904Z,70.30
2018-02-09T05:14:38.477Z,71.30
2018-02-09T05:17:07.087Z,71.60
2018-02-09T05:19:35.718Z,71.20
2018-02-09T05:22:04.356Z,71.40
2018-02-09T05:24:32.989Z,72.40
2018-02-09T05:27:01.621Z,73.10
2018-02-09T05:29:31.438Z,71.60
2018-02-09T05:32:00.027Z,72.40
2018-02-09T05:34:29.054Z,75.60
2018-02-09T05:36:57.666Z,76.40
2018-02-09T05:39:26.282Z,77.10
2018-02-09T05:41:54.875Z,79.70
2018-02-09T05:44:23.898Z,78.70
2018-02-09T05:46:52.481Z,79.30
2018-02-09T05:49:21.134Z,80.00
2018-02-09T05:51:50.111Z,81.10
2018-02-09T05:54:19.114Z,82.00
2018-02-09T05:56:48.162Z,82.30
2018-02-09T05:59:16.881Z,82.50
2018-02-09T06:01:45.587Z,81.30
2018-02-09T06:04:14.275Z,78.90
2018-02-09T06:06:42.904Z,79.10
2018-02-09T06:09:12.259Z,77.90
2018-02-09T06:11:40.879Z,76.60
2018-02-09T06:14:09.502Z,80.00
2018-02-09T06:16:38.108Z,81.10
2018-02-09T06:19:06.740Z,82.30
2018-02-09T06:21:36.130Z,83.40
2018-02-09T06:24:05.776Z,82.30
2018-02-09T06:26:34.442Z,80.60
2018-02-09T06:29:03.078Z,81.40
2018-02-09T06:31:33.766Z,79.00
2018-02-09T06:34:03.742Z,76.60
2018-02-09T06:36:33.993Z,75.90
2018-02-09T06:39:03.096Z,74.90
2018-02-09T06:41:33.488Z,76.30
2018-02-09T06:44:03.285Z,75.80
2018-02-09T06:46:33.568Z,76.10
2018-02-09T06:49:02.293Z,74.40
2018-02-09T06:51:30.988Z,75.00
2018-02-09T06:54:00.370Z,76.30
2018-02-09T06:56:30.129Z,78.30
2018-02-09T06:58:58.825Z,78.10
2018-02-09T07:01:27.412Z,76.90
2018-02-09T07:03:56.811Z,77.20
2018-02-09T07:06:25.423Z,77.10
2018-02-09T07:08:54.866Z,76.40
2018-02-09T07:11:24.514Z,75.70
2018-02-09T07:13:53.254Z,75.60
2018-02-09T07:16:22.234Z,76.50
2018-02-09T07:18:51.330Z,76.00
2018-02-09T07:21:20.376Z,75.20
2018-02-09T07:23:49.022Z,74.60
2018-02-09T07:26:17.705Z,73.70
2018-02-09T07:28:46.392Z,72.60
2018-02-09T07:31:14.977Z,72.20
2018-02-09T07:33:43.682Z,72.10
2018-02-09T07:36:12.661Z,71.30
2018-02-09T07:38:42.958Z,70.40
2018-02-09T07:41:11.983Z,68.20
2018-02-09T07:43:40.988Z,67.70
2018-02-09T07:46:10.483Z,66.50
2018-02-09T07:48:39.487Z,65.90
2018-02-09T07:51:08.663Z,65.10
2018-02-09T07:53:37.613Z,64.60
2018-02-09T07:56:06.995Z,63.70
2018-02-09T07:58:36.360Z,64.40
2018-02-09T08:01:06.168Z,64.70
2018-02-09T08:03:35.976Z,64.60
2018-02-09T08:06:05.328Z,65.00
2018-02-09T08:08:35.370Z,64.20
2018-02-09T08:11:05.628Z,65.40
2018-02-09T08:13:35.234Z,65.50
2018-02-09T08:16:03.902Z,66.10
2018-02-09T08:18:33.328Z,66.70
2018-02-09T08:21:02.626Z,66.00
2018-02-09T08:23:32.130Z,66.20
2018-02-09T08:26:01.329Z,65.60
2018-02-09T08:28:31.070Z,64.70
2018-02-09T08:31:00.136Z,64.50
2018-02-09T08:33:29.126Z,64.40
2018-02-09T08:35:58.877Z,64.10
2018-02-09T08:38:28.043Z,61.70
2018-02-09T08:40:57.550Z,62.20
2018-02-09T08:43:26.155Z,60.30
2018-02-09T08:45:55.630Z,60.00
2018-02-09T08:48:24.731Z,60.70
2018-02-09T08:50:54.339Z,61.40
2018-02-09T08:53:23.942Z,61.10
2018-02-09T08:55:53.312Z,61.20
2018-02-09T08:58:22.672Z,62.30
2018-02-09T09:00:51.293Z,62.50
2018-02-09T09:03:20.641Z,63.40
2018-02-09T09:05:49.650Z,63.20
2018-02-09T09:08:18.622Z,63.40
2018-02-09T09:10:48.127Z,63.20
2018-02-09T09:13:18.145Z,63.40
2018-02-09T09:15:46.830Z,62.70
2018-02-09T09:18:15.426Z,62.60
2018-02-09T09:20:44.584Z,61.90
2018-02-09T09:23:13.209Z,62.20
2018-02-09T09:25:42.598Z,62.60
2018-02-09T09:28:12.138Z,63.40
2018-02-09T09:30:40.743Z,63.10
2018-02-09T09:33:09.694Z,63.00
2018-02-09T09:35:38.697Z,62.90
2018-02-09T09:38:07.691Z,62.00
2018-02-09T09:40:37.026Z,61.40
2018-02-09T09:43:06.020Z,61.50
2018-02-09T09:45:36.297Z,61.60
2018-02-09T09:48:06.514Z,62.00
2018-02-09T09:50:36.114Z,62.00
2018-02-09T09:53:05.723Z,60.90
2018-02-09T09:55:34.519Z,62.80
2018-02-09T09:58:03.197Z,63.00
2018-02-09T10:00:32.293Z,64.30
2018-02-09T10:03:00.936Z,63.90
2018-02-09T10:05:30.333Z,62.80
2018-02-09T10:07:59.360Z,61.60
2018-02-09T10:10:28.780Z,61.80
2018-02-09T10:12:58.120Z,61.80
2018-02-09T10:15:27.584Z,61.20
2018-02-09T10:17:56.655Z,60.20
2018-02-09T10:20:25.648Z,60.70
2018-02-09T10:22:55.016Z,60.70
2018-02-09T10:25:24.070Z,60.60
2018-02-09T10:27:52.768Z,60.70
2018-02-09T10:30:22.413Z,59.30
2018-02-09T10:32:51.819Z,60.30
2018-02-09T10:35:20.795Z,60.00
2018-02-09T10:37:50.303Z,60.00
2018-02-09T10:40:19.770Z,59.40
2018-02-09T10:42:49.277Z,59.70
2018-02-09T10:45:17.962Z,59.00
2018-02-09T10:47:47.432Z,58.90
2018-02-09T10:50:16.176Z,59.00
2018-02-09T10:52:45.764Z,58.40
2018-02-09T10:55:15.238Z,58.70
2018-02-09T10:57:44.317Z,59.00
2018-02-09T11:00:13.868Z,59.60
2018-02-09T11:02:44.084Z,59.70
2018-02-09T11:05:13.185Z,58.50
2018-02-09T11:07:42.696Z,58.20
2018-02-09T11:10:17.930Z,58.30
2018-02-09T11:12:47.232Z,58.70
2018-02-09T11:15:16.688Z,57.80
2018-02-09T11:17:47.061Z,58.00
2018-02-09T11:20:16.771Z,58.20
2018-02-09T11:22:46.282Z,56.10
2018-02-09T11:25:15.918Z,57.50
2018-02-09T11:27:44.963Z,57.60
2018-02-09T11:30:13.835Z,57.90
2018-02-09T11:32:43.237Z,58.70
2018-02-09T11:35:12.577Z,58.70
2018-02-09T11:37:41.816Z,57.60
2018-02-09T11:40:11.001Z,57.50
2018-02-09T11:42:40.665Z,57.30
2018-02-09T11:45:10.043Z,57.60
2018-02-09T11:47:38.725Z,56.40
2018-02-09T11:50:07.770Z,56.70
2018-02-09T11:52:37.273Z,57.00
2018-02-09T11:55:05.955Z,56.70
2018-02-09T11:57:35.057Z,56.50
2018-02-09T12:00:04.363Z,56.90
2018-02-09T12:02:34.071Z,57.70
2018-02-09T12:05:03.264Z,58.20
2018-02-09T12:07:32.050Z,58.00
2018-02-09T12:10:02.009Z,56.70
2018-02-09T12:12:30.617Z,57.50
2018-02-09T12:15:00.055Z,57.50
2018-02-09T12:17:28.959Z,56.70
2018-02-09T12:19:57.593Z,55.00
2018-02-09T12:22:26.681Z,56.10
2018-02-09T12:24:56.117Z,54.60
2018-02-09T12:27:25.200Z,53.80
2018-02-09T12:29:54.630Z,54.00
2018-02-09T12:32:23.599Z,54.00
2018-02-09T12:34:52.246Z,54.00
2018-02-09T12:37:21.705Z,54.20
2018-02-09T12:39:50.396Z,53.80
2018-02-09T12:42:19.417Z,54.10
2018-02-09T12:44:49.566Z,54.10
2018-02-09T12:47:18.570Z,53.80
2018-02-09T12:49:47.294Z,55.50
2018-02-09T12:52:15.939Z,54.70
2018-02-09T12:54:44.573Z,54.80
2018-02-09T12:57:13.360Z,54.10
2018-02-09T12:59:42.226Z,54.80
2018-02-09T13:02:11.251Z,55.60
2018-02-09T13:04:40.514Z,55.90
2018-02-09T13:07:10.083Z,56.90
2018-02-09T13:09:39.247Z,57.00
2018-02-09T13:12:08.702Z,57.70
2018-02-09T13:14:49.377Z,58.30
2018-02-09T13:17:18.861Z,58.40
2018-02-09T13:19:47.579Z,59.10
2018-02-09T13:27:57.140Z,59.30
2018-02-09T13:30:26.837Z,60.20
2018-02-09T13:33:07.542Z,60.50
2018-02-09T13:35:36.918Z,60.50
2018-02-09T13:38:06.267Z,58.90
2018-02-09T13:40:35.768Z,59.60
2018-02-09T13:43:04.748Z,60.20
2018-02-09T13:45:34.114Z,60.10
2018-02-09T13:48:03.256Z,60.30
2018-02-09T13:50:32.040Z,61.20
2018-02-09T13:53:01.422Z,60.10
2018-02-09T13:55:30.830Z,58.60
2018-02-09T13:57:59.521Z,56.80
2018-02-09T14:00:28.338Z,56.20
2018-02-09T14:02:56.997Z,55.60
2018-02-09T14:05:26.144Z,58.40
2018-02-09T14:07:54.797Z,60.80
2018-02-09T14:10:24.183Z,61.60
2018-02-09T14:12:53.603Z,62.60
2018-02-09T14:15:22.696Z,63.30
2018-02-09T14:17:51.798Z,64.70
2018-02-09T14:20:21.189Z,65.40
2018-02-09T14:22:50.501Z,66.20
2018-02-09T14:25:19.526Z,65.50
2018-02-09T14:27:49.616Z,65.70
2018-02-09T14:30:19.370Z,65.50
2018-02-09T14:32:48.406Z,64.50
2018-02-09T14:35:17.414Z,64.80
2018-02-09T14:37:46.455Z,63.60
2018-02-09T14:40:15.080Z,62.70
2018-02-09T14:42:44.437Z,62.80
2018-02-09T14:45:13.088Z,63.40
2018-02-09T14:47:42.683Z,63.60
2018-02-09T14:50:12.103Z,63.50
2018-02-09T14:52:40.756Z,63.30
2018-02-09T14:55:10.135Z,63.80
2018-02-09T14:57:39.169Z,62.70
2018-02-09T15:00:07.862Z,62.30
2018-02-09T15:02:36.908Z,62.20
2018-02-09T15:05:06.268Z,63.40
2018-02-09T15:07:35.671Z,63.40
2018-02-09T15:10:05.092Z,63.40
2018-02-09T15:12:34.160Z,63.00
2018-02-09T15:15:03.256Z,62.90
2018-02-09T15:17:32.635Z,62.90
2018-02-09T15:20:02.014Z,61.80
2018-02-09T15:22:31.414Z,58.50
2018-02-09T15:25:00.456Z,57.30
2018-02-09T15:27:30.164Z,54.60
2018-02-09T15:29:58.850Z,54.40
2018-02-09T15:32:28.359Z,53.50
2018-02-09T15:34:57.745Z,53.80
2018-02-09T15:37:26.387Z,53.00
2018-02-09T15:39:55.427Z,51.40
2018-02-09T15:42:24.801Z,51.60
2018-02-09T15:44:54.566Z,51.70
2018-02-09T15:47:23.934Z,51.40
2018-02-09T15:49:53.309Z,51.30
2018-02-09T15:52:23.445Z,51.20
2018-02-09T15:54:52.834Z,51.30
2018-02-09T15:57:21.848Z,51.80
2018-02-09T15:59:51.272Z,52.30
2018-02-09T16:02:20.662Z,52.70
2018-02-09T16:04:50.078Z,52.60
2018-02-09T16:07:18.712Z,53.30
2018-02-09T16:09:48.834Z,53.60
2018-02-09T16:12:18.229Z,53.80
2018-02-09T16:14:47.641Z,53.80
2018-02-09T16:17:17.044Z,54.60
2018-02-09T16:19:46.816Z,54.10
2018-02-09T16:22:15.473Z,53.80
2018-02-09T16:24:44.609Z,53.80
2018-02-09T16:27:13.704Z,53.90
2018-02-09T16:29:42.728Z,53.70
2018-02-09T16:32:11.798Z,53.80
2018-02-09T16:34:41.189Z,53.50
2018-02-09T16:37:10.545Z,53.60
2018-02-09T16:39:40.081Z,53.50
2018-02-09T16:42:09.153Z,53.80
2018-02-09T16:44:38.271Z,53.80
2018-02-09T16:47:07.317Z,53.30
2018-02-09T16:49:35.999Z,53.90
2018-02-09T16:52:05.361Z,54.10
2018-02-09T16:54:34.861Z,54.50
2018-02-09T16:57:04.527Z,54.60
2018-02-09T16:59:33.580Z,55.00
2018-02-09T17:02:02.184Z,55.10
2018-02-09T17:04:31.703Z,56.10
2018-02-09T17:07:01.126Z,56.50
2018-02-09T17:09:30.181Z,57.00
2018-02-09T17:11:58.897Z,56.60
2018-02-09T17:14:28.674Z,56.40
2018-02-09T17:16:58.072Z,56.70
2018-02-09T17:19:27.154Z,57.20
2018-02-09T17:21:56.602Z,57.10
2018-02-09T17:24:26.039Z,58.00
2018-02-09T17:26:55.143Z,58.20
2018-02-09T17:29:24.249Z,58.20
2018-02-09T17:31:53.602Z,58.40
2018-02-09T17:34:22.918Z,58.40
2018-02-09T17:36:52.285Z,59.10
2018-02-09T17:39:22.409Z,58.80
2018-02-09T17:41:51.405Z,59.00
2018-02-09T17:44:20.759Z,58.50
2018-02-09T17:46:49.969Z,58.10
2018-02-09T17:49:18.587Z,58.70
2018-02-09T17:51:47.754Z,58.50
2018-02-09T17:54:17.497Z,58.70
2018-02-09T17:56:47.375Z,58.90
2018-02-09T17:59:16.880Z,58.50
2018-02-09T18:01:46.793Z,58.60
2018-02-09T18:04:16.148Z,59.10
2018-02-09T18:11:46.965Z,59.50
2018-02-09T18:14:16.798Z,59.20
2018-02-09T18:16:47.511Z,59.70
2018-02-09T18:19:16.560Z,59.40
2018-02-09T18:21:45.231Z,59.90
2018-02-09T18:24:14.674Z,59.80
2018-02-09T18:26:44.099Z,60.20
2018-02-09T18:29:13.475Z,59.90
2018-02-09T18:31:43.008Z,59.70
2018-02-09T18:34:12.428Z,60.10
2018-02-09T18:36:41.398Z,60.70
2018-02-09T18:39:10.802Z,60.90
2018-02-09T18:41:39.598Z,60.70
2018-02-09T18:44:09.485Z,61.40
2018-02-09T18:46:38.885Z,61.40
2018-02-09T18:49:08.374Z,61.90
2018-02-09T18:51:37.838Z,61.80
2018-02-09T18:54:07.261Z,61.80
2018-02-09T18:56:36.426Z,62.20
2018-02-09T18:59:05.213Z,61.60
2018-02-09T19:01:34.320Z,62.60
2018-02-09T19:04:04.334Z,62.30
2018-02-09T19:06:40.415Z,62.40
2018-02-09T19:09:10.334Z,63.10
2018-02-09T19:11:39.912Z,63.00
2018-02-09T19:24:38.121Z,61.70
2018-02-09T19:47:40.795Z,62.40
2018-02-09T19:50:10.287Z,61.90
2018-02-09T19:52:40.639Z,62.80
2018-02-09T19:55:10.060Z,63.30
2018-02-09T19:57:39.148Z,63.80
2018-02-09T20:00:09.254Z,63.80
2018-02-09T20:02:39.269Z,63.30
2018-02-09T20:05:08.407Z,63.60
2018-02-09T20:07:39.235Z,62.60
2018-02-09T20:12:38.988Z,64.20
2018-02-09T20:15:08.550Z,65.10
2018-02-09T20:17:40.953Z,64.90
2018-02-09T20:20:10.907Z,64.60
2018-02-09T20:22:39.942Z,64.80
2018-02-09T20:25:09.382Z,64.00
2018-02-09T20:27:38.862Z,66.70
2018-02-09T20:30:08.210Z,64.30
2018-02-09T20:32:39.274Z,64.20
2018-02-09T20:35:09.046Z,65.10
2018-02-09T20:37:39.114Z,65.50
2018-02-09T20:42:37.771Z,70.60
2018-02-09T20:45:06.525Z,69.10
2018-02-09T20:47:35.560Z,65.00
2018-02-09T20:50:04.559Z,65.50
2018-02-09T20:52:35.130Z,65.80
2018-02-09T20:55:04.939Z,66.50
2018-02-09T21:19:47.944Z,67.50
2018-02-09T21:24:46.530Z,73.00
2018-02-09T21:29:45.339Z,68.30
2018-02-09T21:32:14.634Z,69.80
2018-02-09T21:37:15.446Z,67.30
2018-02-09T21:44:44.879Z,67.50
2018-02-09T21:47:13.560Z,71.70
2018-02-09T21:49:42.961Z,67.30
2018-02-09T21:52:12.317Z,67.50
2018-02-09T21:54:41.074Z,72.50
2018-02-09T21:57:11.338Z,67.50
2018-02-09T21:59:41.132Z,68.10
2018-02-09T22:10:08.551Z,72.60
2018-02-09T22:12:37.587Z,68.70
2018-02-09T22:15:06.906Z,68.70
2018-02-09T22:17:36.701Z,69.10
2018-02-09T22:20:05.753Z,69.10
2018-02-09T22:22:35.150Z,68.90
2018-02-09T22:27:33.940Z,68.60
2018-02-09T22:32:32.449Z,71.20
2018-02-09T22:35:02.043Z,69.30
2018-02-09T22:37:30.694Z,75.10
2018-02-09T22:40:00.560Z,69.10
2018-02-09T22:42:29.708Z,69.30
2018-02-09T22:44:59.227Z,70.00
2018-02-09T22:47:28.060Z,74.30
2018-02-09T22:49:57.505Z,69.40
2018-02-09T22:52:27.054Z,69.90
2018-02-09T22:54:55.715Z,76.50
2018-02-09T22:57:26.086Z,70.40
2018-02-09T22:59:55.486Z,70.50
2018-02-09T23:02:24.817Z,70.70
2018-02-09T23:04:53.431Z,72.40
2018-02-09T23:07:22.830Z,70.70
2018-02-09T23:09:51.404Z,74.80
2018-02-09T23:12:21.266Z,70.40
2018-02-09T23:14:52.829Z,70.60
2018-02-09T23:17:21.789Z,72.30
2018-02-09T23:19:51.219Z,70.70
2018-02-09T23:22:19.869Z,76.30
2018-02-09T23:24:49.681Z,71.00
2018-02-09T23:27:19.918Z,71.20
2018-02-09T23:29:48.971Z,71.60
2018-02-09T23:32:18.383Z,71.70
2018-02-09T23:34:47.443Z,71.50
2018-02-09T23:37:17.347Z,71.40
2018-02-09T23:39:47.258Z,71.60
2018-02-09T23:42:16.278Z,71.70
2018-02-09T23:44:45.877Z,74.90
2018-02-09T23:47:15.159Z,74.80
2018-02-09T23:49:44.523Z,72.30
2018-02-09T23:52:13.921Z,71.90
2018-02-09T23:54:44.753Z,72.00
2018-02-09T23:57:13.752Z,73.20
2018-02-09T23:59:43.959Z,72.20
